New Castle Airport
KILG : now visible

Airfield :











YOU CAN JOIN US ON...

 
LOGIN :

Register | Disclaimer

   EN    FR    IT 

 









Legend :    VFR   Marginal VFR   IFR   Intensive IFR   Very Intensive IFR
Visi :
Ceiling :
>= 8 km
>= 3000ft
5 to 8 km
1000 to 3000 ft
1500m to 5 km
500 to 1000 ft
800 to 1500m
200 to 500 ft
< 800m
< 200 ft
Symbols :   Thunderstorms  Fog  Heavy snow  Heavy precipitations  Wind > 20 kt






- Airport Elevation : 80 ft
- IATA code : ILG


KILG - New Castle

CURRENT METAR :
  • 230751Z AUTO 25004KT 10SM OVC007 23/22 A2995 RMK AO2 SLP140 T02280217

EXPIRED METARs :
  • 230705Z AUTO 00000KT 10SM OVC009 23/21 A2995 RMK AO2 LTG DSNT NE T02280211
  • 230651Z AUTO 07004KT 10SM OVC010 23/21 A2995 RMK AO2 RAE08 SLP142 P0005 T02280211
  • 230551Z AUTO 08005KT 7SM -RA BKN014 OVC021 22/21 A2996 RMK AO2 LTG DSNT NW RAE43B50 SLP144 P0003 60003 T02220211 10244 20222 58003
  • 230529Z AUTO 10004KT 10SM -RA OVC022 23/21 A2998 RMK AO2 P0001 T02280211
  • 230514Z AUTO 11004KT 10SM VCTS -RA BKN019 BKN024 OVC031 23/21 A2998 RMK AO2 P0001 T02280206
  • 230451Z AUTO 13004KT 10SM -RA BKN021 23/21 A2998 RMK AO2 RAB18 SLP150 P0000 T02280206 402670228
  • 230351Z AUTO 12003KT 10SM FEW017 23/19 A2997 RMK AO2 SLP147 T02330189
  • 230343Z AUTO 13004KT 10SM SCT018 23/19 A2997 RMK AO2 T02330189

TAF KILG
Valid from the 23 at 07:00 until the 24 at 06:00 UTC


230720Z 2307/2406 VRB03KT P6SM OVC010
TEMPO 2307/2309 BKN008 OVC015
FM230900 VRB03KT 6SM BR VCSH OVC010
FM231200 20005KT P6SM BKN025
FM231400 26005KT P6SM BKN040
FM231800 23008KT P6SM VCSH SCT050 BKN150
FM240000 19005KT P6SM VCTS BKN040CB
KZDC FIR / North America



MET'MAP, your aeronautical weather chart ! - Copyright ORBIFLY December 2007 - Disclaimer

ORBIFLY MET'MAP TEAM :

Programming & Development : Alexandra Zaïnal
Original concept : Baudouin d'Aumeries
Technical & hardware support : Manuel Goepfert
Assistance : Marc-Olivier Méhu




SOURCES & CREDITS :

   NOAA       Earth
Advisory